Time;durP1;ratioP1;P1;durP2;ratioP2;P2;SDS_P1;SDS_P2;PMS_P1;PMS_P2;Temp;Humidity;BMP_temperature;BMP_pressure;BME280_temperature;BME280_humidity;BME280_pressure;Samples;Min_cycle;Max_cycle;Signal;HPM_P1;HPM_P2
2024/04/13 00:01:19;;;;;;;30.38;11.15;;;;;;;8.08;100.00;101815.41;5439476;26;20408;-79
2024/04/13 00:03:50;;;;;;;31.20;11.60;;;;;;;8.05;100.00;101804.19;5436306;26;20402;-81
2024/04/13 00:06:18;;;;;;;32.38;11.27;;;;;;;8.32;100.00;101804.56;5434351;26;20376;-80
2024/04/13 00:08:48;;;;;;;30.70;11.50;;;;;;;8.39;100.00;101802.53;5441766;26;20388;-80
2024/04/13 00:11:18;;;;;;;34.03;11.50;;;;;;;8.48;100.00;101792.22;5447308;26;20494;-80
2024/04/13 00:13:49;;;;;;;35.60;11.23;;;;;;;8.48;100.00;101781.34;5436121;26;20390;-79
2024/04/13 00:16:17;;;;;;;33.15;10.93;;;;;;;8.56;100.00;101780.97;5449288;26;20364;-82
2024/04/13 00:18:48;;;;;;;35.17;12.02;;;;;;;8.72;100.00;101775.88;5448139;26;20390;-79
2024/04/13 00:21:15;;;;;;;33.40;11.63;;;;;;;8.66;100.00;101781.19;5473322;26;20874;-80
2024/04/13 00:23:49;;;;;;;27.52;11.15;;;;;;;8.77;100.00;101770.53;5449535;26;20368;-80
2024/04/13 00:26:19;;;;;;;36.72;11.45;;;;;;;8.85;100.00;101778.28;5446715;26;20405;-80
2024/04/13 00:28:52;;;;;;;29.98;10.73;;;;;;;8.82;100.00;101778.78;5446625;26;20376;-80
2024/04/13 00:31:20;;;;;;;27.83;10.50;;;;;;;8.81;100.00;101772.53;5441997;26;20743;-79
2024/04/13 00:33:51;;;;;;;31.50;10.77;;;;;;;8.82;100.00;101770.63;5446928;26;20352;-79
2024/04/13 00:36:18;;;;;;;29.33;10.75;;;;;;;8.74;100.00;101765.59;5471352;26;20892;-80
2024/04/13 00:38:49;;;;;;;34.83;10.65;;;;;;;8.77;100.00;101771.38;5448718;26;20364;-80
2024/04/13 00:41:19;;;;;;;30.50;10.63;;;;;;;8.78;100.00;101761.31;5446392;26;20377;-81
2024/04/13 00:43:49;;;;;;;28.27;10.60;;;;;;;8.85;100.00;101764.72;5452629;26;20373;-80
2024/04/13 00:46:23;;;;;;;29.63;10.07;;;;;;;8.85;100.00;101768.28;5450928;26;20368;-79
2024/04/13 00:48:55;;;;;;;25.40;10.40;;;;;;;8.79;100.00;101757.53;5459532;26;20364;-80
2024/04/13 00:51:23;;;;;;;25.80;9.80;;;;;;;8.81;100.00;101763.53;5450910;26;20932;-79
2024/04/13 00:53:56;;;;;;;25.85;9.60;;;;;;;8.65;100.00;101757.00;5451404;26;20389;-80
2024/04/13 00:56:26;;;;;;;21.98;9.38;;;;;;;8.77;100.00;101759.66;5439010;26;20376;-80
2024/04/13 00:58:57;;;;;;;25.97;9.30;;;;;;;8.84;100.00;101754.94;5445136;26;20459;-81
2024/04/13 01:01:24;;;;;;;26.50;9.60;;;;;;;8.74;100.00;101752.00;5450917;26;20380;-80
2024/04/13 01:03:55;;;;;;;28.88;9.48;;;;;;;8.79;100.00;101754.84;5450775;26;20734;-79
2024/04/13 01:06:23;;;;;;;23.42;9.20;;;;;;;8.87;100.00;101735.44;5451377;26;20396;-80
2024/04/13 01:08:53;;;;;;;29.80;9.80;;;;;;;8.82;100.00;101738.06;5452268;26;20400;-80
2024/04/13 01:11:21;;;;;;;22.27;9.25;;;;;;;8.94;100.00;101741.56;5452256;26;20389;-79
2024/04/13 01:13:54;;;;;;;23.60;8.77;;;;;;;8.99;100.00;101738.09;5450681;26;20763;-79
2024/04/13 01:16:26;;;;;;;23.20;8.98;;;;;;;8.91;100.00;101735.78;5461928;26;20716;-79
2024/04/13 01:18:56;;;;;;;23.55;8.82;;;;;;;8.88;100.00;101739.81;5450938;26;20376;-80
2024/04/13 01:21:23;;;;;;;25.35;8.50;;;;;;;8.91;100.00;101731.19;5441663;26;20376;-82
2024/04/13 01:24:02;;;;;;;23.67;8.70;;;;;;;8.92;100.00;101732.84;5451428;26;20586;-80
2024/04/13 01:26:30;;;;;;;22.08;8.60;;;;;;;8.79;100.00;101736.66;5449017;26;20383;-82
2024/04/13 01:29:00;;;;;;;25.45;8.35;;;;;;;8.92;100.00;101730.13;5451296;26;20372;-79
2024/04/13 01:31:27;;;;;;;21.80;8.27;;;;;;;8.85;100.00;101734.84;5452021;26;20368;-79
2024/04/13 01:33:58;;;;;;;19.88;8.20;;;;;;;8.76;100.00;101731.72;5451922;26;20732;-80
2024/04/13 01:36:26;;;;;;;19.15;7.50;;;;;;;8.72;100.00;101732.44;5434037;26;20420;-80
2024/04/13 01:38:58;;;;;;;21.67;8.05;;;;;;;8.73;100.00;101726.78;5451291;26;20394;-81
2024/04/13 01:41:26;;;;;;;24.33;7.57;;;;;;;8.70;100.00;101729.13;5444769;26;20372;-79
2024/04/13 01:43:56;;;;;;;20.10;7.82;;;;;;;8.70;100.00;101729.13;5451125;26;20380;-80
2024/04/13 01:46:23;;;;;;;19.60;7.38;;;;;;;8.66;100.00;101737.75;5443938;26;20368;-80
2024/04/13 01:48:53;;;;;;;18.02;7.70;;;;;;;8.68;100.00;101729.38;5451837;26;20864;-80
2024/04/13 01:51:21;;;;;;;21.13;7.30;;;;;;;8.70;100.00;101731.84;5449857;26;20382;-80
2024/04/13 01:53:51;;;;;;;20.30;7.22;;;;;;;8.67;100.00;101738.56;5443370;26;20388;-80
2024/04/13 01:56:22;;;;;;;18.42;6.97;;;;;;;8.70;100.00;101726.41;5450354;26;20382;-80
2024/04/13 01:58:52;;;;;;;22.75;7.53;;;;;;;8.63;100.00;101723.84;5450131;26;21225;-80
2024/04/13 02:01:20;;;;;;;17.45;6.70;;;;;;;8.70;100.00;101721.84;5445443;26;20392;-80
2024/04/13 02:03:51;;;;;;;21.02;7.35;;;;;;;8.72;100.00;101716.97;5449537;26;20891;-79
2024/04/13 02:06:18;;;;;;;19.30;7.20;;;;;;;8.73;100.00;101715.06;5450922;26;20388;-80
2024/04/13 02:08:48;;;;;;;19.90;7.10;;;;;;;8.70;100.00;101716.41;5450304;26;20372;-81
2024/04/13 02:11:16;;;;;;;18.02;6.90;;;;;;;8.73;100.00;101710.50;5449995;26;20379;-79
2024/04/13 02:13:49;;;;;;;19.58;6.80;;;;;;;8.72;100.00;101716.16;5449896;26;20467;-80
2024/04/13 02:16:16;;;;;;;18.67;6.78;;;;;;;8.70;100.00;101715.56;5435182;26;20382;-80
2024/04/13 02:18:46;;;;;;;15.98;6.28;;;;;;;8.75;100.00;101705.63;5449538;26;20394;-80
2024/04/13 02:21:16;;;;;;;18.50;6.85;;;;;;;8.77;100.00;101706.22;5451005;26;20372;-80
2024/04/13 02:23:46;;;;;;;17.58;6.32;;;;;;;8.78;100.00;101704.31;5441295;26;20399;-79
2024/04/13 02:26:13;;;;;;;19.88;6.88;;;;;;;8.85;100.00;101703.13;5418611;26;20392;-80
2024/04/13 02:28:43;;;;;;;16.67;6.53;;;;;;;9.00;100.00;101708.00;5449220;26;20410;-79
2024/04/13 02:31:14;;;;;;;17.50;6.55;;;;;;;8.98;100.00;101718.28;5445246;26;20728;-79
2024/04/13 02:33:44;;;;;;;15.80;6.15;;;;;;;8.96;100.00;101704.13;5449742;26;20399;-79
2024/04/13 02:36:11;;;;;;;18.10;6.13;;;;;;;9.03;100.00;101712.09;5450059;26;20391;-80
2024/04/13 02:38:42;;;;;;;17.15;6.45;;;;;;;9.15;100.00;101701.19;5460045;26;20382;-82
2024/04/13 02:41:09;;;;;;;18.65;6.35;;;;;;;9.09;100.00;101703.00;5451060;26;20389;-80
2024/04/13 02:43:40;;;;;;;12.35;5.68;;;;;;;9.05;100.00;101695.59;5441784;26;20377;-78
2024/04/13 02:46:09;;;;;;;15.88;6.00;;;;;;;9.07;100.00;101699.69;5450125;26;20389;-80
2024/04/13 02:48:43;;;;;;;18.95;6.10;;;;;;;9.02;100.00;101708.59;5450530;26;20381;-79
2024/04/13 02:51:13;;;;;;;15.25;5.93;;;;;;;9.10;100.00;101701.94;5451228;26;20376;-80
2024/04/13 02:53:44;;;;;;;16.73;5.90;;;;;;;8.95;100.00;101709.78;5449604;26;20357;-80
2024/04/13 02:56:11;;;;;;;16.75;6.18;;;;;;;8.94;100.00;101698.13;5474090;26;20369;-79
2024/04/13 02:58:41;;;;;;;15.20;6.55;;;;;;;8.99;100.00;101692.78;5447540;26;20369;-80
2024/04/13 03:01:09;;;;;;;11.77;5.77;;;;;;;8.99;100.00;101691.94;5449164;26;20386;-79
2024/04/13 03:03:42;;;;;;;17.13;5.80;;;;;;;8.92;100.00;101689.41;5442398;26;20388;-79
2024/04/13 03:06:11;;;;;;;14.07;5.63;;;;;;;8.89;100.00;101683.63;5445609;26;21106;-79
2024/04/13 03:08:41;;;;;;;17.67;5.00;;;;;;;8.92;100.00;101694.84;5449821;26;20372;-79
2024/04/13 03:11:09;;;;;;;14.30;5.50;;;;;;;8.92;100.00;101691.28;5431689;26;20379;-80
2024/04/13 03:13:39;;;;;;;13.10;5.30;;;;;;;9.05;100.00;101693.69;5448765;26;21020;-79
2024/04/13 03:16:09;;;;;;;14.43;5.20;;;;;;;9.02;100.00;101688.75;5450456;26;20372;-79
2024/04/13 03:18:43;;;;;;;16.83;5.85;;;;;;;9.10;100.00;101695.66;5447885;26;20378;-81
2024/04/13 03:21:11;;;;;;;14.13;5.30;;;;;;;9.05;100.00;101706.47;5441339;26;20380;-80
2024/04/13 03:23:43;;;;;;;14.82;5.57;;;;;;;9.06;100.00;101705.38;5450461;26;20384;-79
2024/04/13 03:26:10;;;;;;;12.85;5.00;;;;;;;9.02;100.00;101696.91;5449633;26;20393;-81
2024/04/13 03:28:40;;;;;;;11.27;4.90;;;;;;;8.97;100.00;101691.38;5465372;26;20388;-80
2024/04/13 03:31:08;;;;;;;13.20;5.35;;;;;;;8.88;100.00;101685.53;5448316;26;20717;-80
2024/04/13 03:33:38;;;;;;;11.45;5.15;;;;;;;8.95;100.00;101690.78;5450578;26;20425;-80
2024/04/13 03:36:09;;;;;;;15.07;5.30;;;;;;;8.99;100.00;101690.06;5448827;26;21267;-80
2024/04/13 03:38:39;;;;;;;13.48;5.13;;;;;;;8.95;100.00;101690.78;5432758;26;20916;-80
2024/04/13 03:41:10;;;;;;;13.10;5.00;;;;;;;8.87;100.00;101697.44;5413189;26;20404;-79
2024/04/13 03:43:37;;;;;;;14.77;5.07;;;;;;;8.87;100.00;101699.34;5422069;26;20401;-81
2024/04/13 03:46:09;;;;;;;14.63;5.00;;;;;;;8.86;100.00;101698.50;5450835;26;20380;-79
2024/04/13 03:48:41;;;;;;;13.48;5.47;;;;;;;8.82;100.00;101694.63;5442187;26;20369;-80
2024/04/13 03:51:14;;;;;;;13.77;5.20;;;;;;;8.84;100.00;101697.94;5442350;26;20778;-79
2024/04/13 03:53:42;;;;;;;14.65;4.85;;;;;;;8.79;100.00;101704.06;5448390;26;20386;-80
2024/04/13 03:56:13;;;;;;;12.10;4.90;;;;;;;8.83;100.00;101697.09;5448902;26;20396;-80
2024/04/13 03:58:40;;;;;;;12.07;5.47;;;;;;;8.83;100.00;101694.38;5435058;26;20371;-81
2024/04/13 04:01:10;;;;;;;16.05;4.93;;;;;;;8.85;100.00;101689.56;5444148;26;20382;-80
2024/04/13 04:03:38;;;;;;;13.18;5.10;;;;;;;8.84;100.00;101681.66;5448717;26;20735;-80
2024/04/13 04:06:09;;;;;;;13.60;5.60;;;;;;;8.83;100.00;101680.81;5443909;26;20380;-79
2024/04/13 04:08:39;;;;;;;11.73;5.03;;;;;;;8.91;100.00;101679.59;5472764;26;20376;-80
2024/04/13 04:11:10;;;;;;;13.87;5.47;;;;;;;8.92;100.00;101683.97;5448035;26;20373;-80
2024/04/13 04:13:37;;;;;;;10.65;4.85;;;;;;;8.88;100.00;101671.13;5436592;26;20414;-79
2024/04/13 04:16:08;;;;;;;12.68;5.13;;;;;;;8.92;100.00;101667.69;5448741;26;20376;-81
2024/04/13 04:18:35;;;;;;;12.57;5.47;;;;;;;8.95;100.00;101664.47;5437509;26;20406;-80
2024/04/13 04:21:06;;;;;;;13.02;5.32;;;;;;;9.00;100.00;101680.88;5448060;26;20383;-80
2024/04/13 04:23:34;;;;;;;15.15;5.00;;;;;;;9.16;100.00;101676.50;5438350;26;20384;-80
2024/04/13 04:26:08;;;;;;;12.15;5.13;;;;;;;9.16;100.00;101679.22;5415666;26;23231;-80
2024/04/13 04:28:36;;;;;;;13.30;5.00;;;;;;;9.17;100.00;101675.44;5448578;26;20380;-79
2024/04/13 04:31:14;;;;;;;11.68;5.35;;;;;;;9.14;100.00;101670.50;5446965;26;20368;-79
2024/04/13 04:33:42;;;;;;;12.27;4.90;;;;;;;9.12;100.00;101672.63;5442385;26;20404;-80
2024/04/13 04:36:12;;;;;;;11.68;4.72;;;;;;;9.16;100.00;101667.53;5476417;26;20375;-80
2024/04/13 04:38:39;;;;;;;13.00;4.93;;;;;;;9.27;100.00;101673.97;5432007;26;20395;-79
2024/04/13 04:41:14;;;;;;;12.38;5.00;;;;;;;9.39;100.00;101673.88;5444057;26;20376;-80
2024/04/13 04:43:41;;;;;;;12.60;5.30;;;;;;;9.38;100.00;101677.66;5447889;26;20728;-80
2024/04/13 04:46:12;;;;;;;13.18;5.00;;;;;;;9.35;100.00;101666.22;5465464;26;20398;-79
2024/04/13 04:48:39;;;;;;;10.93;4.63;;;;;;;9.48;100.00;101669.69;5448088;26;20384;-81
2024/04/13 04:51:10;;;;;;;16.67;5.25;;;;;;;9.47;100.00;101670.75;5429711;26;20406;-79
2024/04/13 04:53:37;;;;;;;13.30;4.82;;;;;;;9.48;100.00;101683.25;5430318;26;20395;-79
2024/04/13 04:56:09;;;;;;;11.57;4.60;;;;;;;9.53;100.00;101680.63;5428438;26;20388;-79
2024/04/13 04:58:39;;;;;;;12.30;4.97;;;;;;;9.51;100.00;101675.44;5452326;26;20398;-81
2024/04/13 05:01:09;;;;;;;13.73;4.63;;;;;;;9.57;100.00;101680.94;5448501;26;20345;-81
2024/04/13 05:03:37;;;;;;;10.90;4.57;;;;;;;9.59;100.00;101676.09;5442883;26;20386;-79
2024/04/13 05:06:08;;;;;;;14.02;4.55;;;;;;;9.60;100.00;101675.00;5446407;26;20385;-79
2024/04/13 05:08:35;;;;;;;10.88;4.95;;;;;;;9.70;100.00;101678.69;5439922;26;20404;-80
2024/04/13 05:11:06;;;;;;;11.38;4.88;;;;;;;9.92;100.00;101671.69;5445688;26;20886;-80
2024/04/13 05:13:33;;;;;;;13.07;4.80;;;;;;;10.02;100.00;101667.19;5440745;26;20384;-80
2024/04/13 05:16:08;;;;;;;12.35;5.07;;;;;;;10.13;100.00;101654.53;5422718;26;20387;-81
2024/04/13 05:18:35;;;;;;;11.00;4.22;;;;;;;10.14;100.00;101661.63;5445929;26;20382;-80
2024/04/13 05:21:06;;;;;;;10.52;4.45;;;;;;;10.04;100.00;101650.63;5438958;26;20381;-80
2024/04/13 05:23:33;;;;;;;8.88;4.53;;;;;;;10.08;100.00;101648.22;5431020;26;20387;-80
2024/04/13 05:26:03;;;;;;;10.50;4.50;;;;;;;10.11;100.00;101650.41;5444756;26;20373;-79
2024/04/13 05:28:31;;;;;;;10.60;4.82;;;;;;;10.29;100.00;101655.56;5442514;26;20400;-80
2024/04/13 05:31:03;;;;;;;10.47;4.60;;;;;;;10.40;100.00;101664.72;5434722;26;20400;-80
2024/04/13 05:33:33;;;;;;;12.82;4.57;;;;;;;10.51;100.00;101660.22;5437225;26;20385;-80
2024/04/13 05:36:03;;;;;;;10.57;4.80;;;;;;;10.65;100.00;101660.63;5451519;26;20409;-80
2024/04/13 05:38:31;;;;;;;10.38;4.55;;;;;;;10.71;100.00;101679.44;5441332;26;20372;-80
2024/04/13 05:41:01;;;;;;;11.23;4.78;;;;;;;10.87;100.00;101677.72;5439322;26;20386;-80
2024/04/13 05:43:29;;;;;;;12.07;4.40;;;;;;;10.99;100.00;101682.19;5438565;26;20373;-80
2024/04/13 05:45:59;;;;;;;11.38;4.78;;;;;;;11.08;100.00;101688.81;5451322;26;20380;-80
2024/04/13 05:48:28;;;;;;;9.73;4.40;;;;;;;11.21;100.00;101684.84;5439933;26;20381;-79
2024/04/13 05:51:02;;;;;;;11.10;4.50;;;;;;;11.19;100.00;101687.00;5428427;26;20761;-79
2024/04/13 05:53:29;;;;;;;9.52;4.30;;;;;;;11.35;100.00;101680.59;5446917;26;20385;-79
2024/04/13 05:56:05;;;;;;;11.00;4.60;;;;;;;11.43;100.00;101675.75;5476392;26;20391;-80
2024/04/13 05:58:33;;;;;;;11.23;4.70;;;;;;;11.57;100.00;101671.47;5438707;26;20527;-79
2024/04/13 06:01:03;;;;;;;11.95;4.85;;;;;;;11.70;100.00;101676.47;5455278;26;20438;-80
2024/04/13 06:03:30;;;;;;;9.90;4.55;;;;;;;11.79;100.00;101670.53;5448933;26;20368;-79
2024/04/13 06:06:03;;;;;;;10.85;4.50;;;;;;;11.79;100.00;101670.53;5449081;26;20398;-80
2024/04/13 06:08:30;;;;;;;10.13;4.37;;;;;;;11.78;100.00;101671.63;5438820;26;20398;-79
2024/04/13 06:11:02;;;;;;;10.75;4.40;;;;;;;11.81;100.00;101666.47;5441271;26;20402;-80
2024/04/13 06:13:29;;;;;;;9.15;4.20;;;;;;;11.88;100.00;101675.22;5443222;26;20376;-80
2024/04/13 06:15:59;;;;;;;9.52;4.30;;;;;;;11.81;100.00;101669.19;5435610;26;20375;-80
2024/04/13 06:18:26;;;;;;;11.07;4.72;;;;;;;11.80;100.00;101674.91;5435177;26;20397;-79
2024/04/13 06:20:57;;;;;;;13.60;4.70;;;;;;;11.90;100.00;101662.16;5441372;26;20391;-79
2024/04/13 06:23:28;;;;;;;11.02;4.63;;;;;;;12.01;100.00;101651.31;5429821;26;20375;-79
2024/04/13 06:25:58;;;;;;;10.38;4.75;;;;;;;12.02;100.00;101647.50;5443489;26;20712;-80
2024/04/13 06:28:26;;;;;;;9.07;4.30;;;;;;;12.18;100.00;101653.84;5426935;26;20395;-79
2024/04/13 06:30:57;;;;;;;9.68;4.20;;;;;;;12.15;100.00;101657.09;5436792;26;20872;-80
2024/04/13 06:33:24;;;;;;;11.18;4.50;;;;;;;12.39;100.00;101650.09;5446296;26;21283;-79
2024/04/13 06:35:55;;;;;;;13.65;4.57;;;;;;;12.49;100.00;101662.16;5438175;26;20392;-80
2024/04/13 06:38:23;;;;;;;10.18;4.38;;;;;;;12.44;100.00;101653.94;5436631;26;20357;-79
2024/04/13 06:40:56;;;;;;;7.45;4.10;;;;;;;12.51;100.00;101668.16;5436459;26;20360;-80
2024/04/13 06:43:24;;;;;;;11.97;4.73;;;;;;;12.48;100.00;101664.03;5434460;26;20793;-79
2024/04/13 06:45:54;;;;;;;9.55;4.25;;;;;;;12.57;100.00;101662.44;5425996;26;20907;-79
2024/04/13 06:48:21;;;;;;;9.43;4.10;;;;;;;12.65;100.00;101658.38;5473274;26;20743;-80
2024/04/13 06:50:51;;;;;;;12.68;4.88;;;;;;;12.66;100.00;101648.25;5449158;26;20360;-79
2024/04/13 06:53:20;;;;;;;11.70;4.18;;;;;;;12.69;100.00;101645.81;5446833;26;20392;-81
2024/04/13 06:55:50;;;;;;;12.10;4.60;;;;;;;12.85;100.00;101643.91;5437177;26;20383;-80
2024/04/13 06:58:23;;;;;;;9.00;3.97;;;;;;;12.93;100.00;101650.75;5438329;26;20898;-79
2024/04/13 07:00:57;;;;;;;9.15;4.13;;;;;;;13.02;100.00;101667.44;5443018;26;20397;-79
2024/04/13 07:03:25;;;;;;;9.15;4.35;;;;;;;12.99;100.00;101655.13;5444641;26;20412;-81
2024/04/13 07:05:59;;;;;;;10.90;4.30;;;;;;;13.10;100.00;101655.94;5449326;26;20372;-80
2024/04/13 07:08:27;;;;;;;10.43;4.07;;;;;;;13.16;100.00;101657.59;5439089;26;20383;-79
2024/04/13 07:10:58;;;;;;;10.47;4.10;;;;;;;13.27;100.00;101655.66;5445001;26;20371;-79
2024/04/13 07:13:28;;;;;;;8.35;4.07;;;;;;;13.33;100.00;101653.78;5433030;26;20377;-81
2024/04/13 07:15:58;;;;;;;8.85;4.10;;;;;;;13.28;100.00;101649.13;5453263;26;20381;-80
2024/04/13 07:18:26;;;;;;;11.80;4.60;;;;;;;13.38;100.00;101645.59;5447669;26;20398;-78
2024/04/13 07:20:56;;;;;;;9.05;4.35;;;;;;;13.46;100.00;101650.50;5441200;26;20380;-79
2024/04/13 07:23:24;;;;;;;10.70;4.10;;;;;;;13.54;100.00;101649.13;5447184;26;20372;-80
2024/04/13 07:26:00;;;;;;;10.60;4.18;;;;;;;13.51;100.00;101649.69;5449147;26;20376;-81
2024/04/13 07:28:31;;;;;;;9.07;4.30;;;;;;;13.58;100.00;101650.22;5445138;26;20405;-80
2024/04/13 07:31:02;;;;;;;9.73;3.78;;;;;;;13.57;100.00;101648.56;5451804;26;20383;-82
2024/04/13 07:33:29;;;;;;;13.23;4.45;;;;;;;13.65;100.00;101648.00;5406504;26;20359;-84
2024/04/13 07:35:59;;;;;;;9.48;4.00;;;;;;;13.77;100.00;101648.53;5397689;26;20335;-84
2024/04/13 07:38:27;;;;;;;9.85;3.95;;;;;;;13.75;100.00;101650.75;5409792;26;20342;-82
2024/04/13 07:40:57;;;;;;;12.88;4.20;;;;;;;13.81;100.00;101656.16;5408738;26;20328;-82
2024/04/13 07:43:24;;;;;;;14.15;5.07;;;;;;;13.93;100.00;101651.22;5399848;26;21226;-84
2024/04/13 07:45:57;;;;;;;25.10;5.77;;;;;;;14.07;100.00;101656.91;5399532;26;20357;-85
2024/04/13 07:48:25;;;;;;;10.65;4.05;;;;;;;13.99;100.00;101649.28;5415468;26;20685;-80
2024/04/13 07:50:55;;;;;;;11.55;4.00;;;;;;;14.04;100.00;101641.88;5416410;26;20335;-82
2024/04/13 07:53:22;;;;;;;9.90;4.10;;;;;;;14.01;100.00;101658.84;5395811;26;20340;-84
2024/04/13 07:55:52;;;;;;;10.43;4.10;;;;;;;14.12;100.00;101649.50;5405489;26;20329;-81
2024/04/13 07:58:20;;;;;;;10.32;3.90;;;;;;;14.38;100.00;101646.66;5407546;26;21059;-83
2024/04/13 08:00:50;;;;;;;9.63;3.70;;;;;;;14.51;100.00;101647.94;5397786;26;20860;-85
2024/04/13 08:03:21;;;;;;;9.67;3.90;;;;;;;14.61;100.00;101658.84;5395154;26;20465;-83
2024/04/13 08:05:53;;;;;;;8.52;3.50;;;;;;;14.80;100.00;101652.72;5399249;26;23056;-84
2024/04/13 08:08:20;;;;;;;11.23;3.80;;;;;;;14.95;100.00;101660.84;5392893;26;20367;-81
2024/04/13 08:10:50;;;;;;;10.20;4.18;;;;;;;14.78;100.00;101663.97;5392062;26;20385;-83
2024/04/13 08:13:18;;;;;;;12.73;3.85;;;;;;;14.81;100.00;101659.03;5401780;26;20373;-88
2024/04/13 08:15:48;;;;;;;11.00;4.00;;;;;;;14.75;100.00;101667.28;5393891;26;20371;-82
2024/04/13 08:18:15;;;;;;;7.78;3.47;;;;;;;14.89;100.00;101666.66;5393726;26;20384;-83
2024/04/13 08:20:49;;;;;;;10.60;3.65;;;;;;;14.96;100.00;101670.69;5394688;26;20597;-84
2024/04/13 08:23:17;;;;;;;11.52;3.72;;;;;;;15.00;100.00;101673.69;5387813;26;20331;-85
2024/04/13 08:25:47;;;;;;;8.85;3.40;;;;;;;14.91;100.00;101672.66;5391421;26;20680;-84
2024/04/13 08:28:14;;;;;;;10.38;3.97;;;;;;;14.87;100.00;101672.41;5396706;26;20323;-83
2024/04/13 08:30:44;;;;;;;11.63;3.55;;;;;;;14.97;100.00;101668.78;5396374;26;20343;-84
2024/04/13 08:33:12;;;;;;;8.87;3.47;;;;;;;14.98;100.00;101673.16;5395065;26;20418;-83
2024/04/13 08:35:42;;;;;;;9.23;3.70;;;;;;;14.98;100.00;101669.59;5405061;26;20749;-83
2024/04/13 08:38:12;;;;;;;12.07;3.80;;;;;;;15.05;100.00;101668.19;5399242;26;20341;-84
2024/04/13 08:40:42;;;;;;;8.45;3.33;;;;;;;15.14;100.00;101662.91;5394139;26;20343;-84
2024/04/13 08:43:10;;;;;;;9.20;3.30;;;;;;;15.34;100.00;101658.34;5399130;26;20368;-82
2024/04/13 08:45:40;;;;;;;10.65;3.28;;;;;;;15.40;100.00;101654.47;5410036;26;20332;-80
2024/04/13 08:48:10;;;;;;;8.05;3.35;;;;;;;15.62;100.00;101648.47;5403474;26;21204;-84
2024/04/13 08:50:40;;;;;;;8.00;3.53;;;;;;;15.48;100.00;101642.88;5395580;26;20339;-84
2024/04/13 08:53:08;;;;;;;10.18;3.40;;;;;;;15.32;100.00;101650.41;5394426;26;21247;-84
2024/04/13 08:55:41;;;;;;;8.88;3.80;;;;;;;15.39;100.00;101645.41;5402310;26;20856;-83
2024/04/13 08:58:11;;;;;;;9.45;3.42;;;;;;;15.50;100.00;101646.13;5395420;26;21377;-82
2024/04/13 09:00:41;;;;;;;9.25;3.40;;;;;;;15.64;100.00;101638.00;5406904;26;20340;-83
2024/04/13 09:03:11;;;;;;;9.00;3.10;;;;;;;15.78;100.00;101646.38;5401626;26;20880;-84
2024/04/13 09:05:41;;;;;;;7.38;3.60;;;;;;;15.71;100.00;101646.72;5399203;26;20367;-81
2024/04/13 09:08:10;;;;;;;9.60;3.33;;;;;;;15.55;100.00;101632.34;5398754;26;21363;-84
2024/04/13 09:10:45;;;;;;;10.15;3.85;;;;;;;15.62;100.00;101643.81;5400284;26;20373;-84
2024/04/13 09:13:12;;;;;;;9.63;4.35;;;;;;;15.60;100.00;101646.00;5400449;26;20358;-83
2024/04/13 09:15:42;;;;;;;8.75;3.90;;;;;;;15.78;100.00;101647.22;5411022;26;20826;-82
2024/04/13 09:18:10;;;;;;;9.13;4.30;;;;;;;15.85;100.00;101654.28;5408866;26;20347;-82
2024/04/13 09:20:41;;;;;;;10.45;4.38;;;;;;;15.62;100.00;101652.03;5406626;26;20362;-84
2024/04/13 09:23:10;;;;;;;11.52;4.40;;;;;;;15.55;100.00;101648.81;5401793;26;20323;-81
2024/04/13 09:25:43;;;;;;;10.00;4.30;;;;;;;15.71;100.00;101645.91;5403626;26;20353;-84
2024/04/13 09:28:12;;;;;;;9.25;4.35;;;;;;;16.07;100.00;101638.09;5406832;26;20363;-83
2024/04/13 09:30:42;;;;;;;11.18;4.32;;;;;;;16.22;100.00;101628.84;5406413;26;20331;-84
2024/04/13 09:33:13;;;;;;;8.90;4.53;;;;;;;16.30;100.00;101643.88;5380540;26;21113;-85
2024/04/13 09:35:43;;;;;;;10.38;4.00;;;;;;;16.27;100.00;101645.28;5401646;26;20337;-82
2024/04/13 09:38:16;;;;;;;10.73;4.30;;;;;;;16.35;100.00;101635.56;5405312;26;20367;-85
2024/04/13 09:40:48;;;;;;;14.00;4.30;;;;;;;16.26;100.00;101620.84;5435933;26;20325;-84
2024/04/13 09:43:20;;;;;;;9.88;4.15;;;;;;;16.39;100.00;101620.13;5404613;26;21580;-82
2024/04/13 09:45:56;;;;;;;9.70;4.43;;;;;;;16.54;100.00;101618.25;5398390;26;21416;-83
2024/04/13 09:48:24;;;;;;;9.60;4.13;;;;;;;16.93;100.00;101626.22;5400880;26;20368;-83
2024/04/13 09:50:57;;;;;;;10.80;4.18;;;;;;;16.87;100.00;101618.31;5404491;26;20375;-82
2024/04/13 09:53:25;;;;;;;8.70;3.78;;;;;;;16.93;100.00;101617.97;5406231;26;20325;-82
2024/04/13 09:55:58;;;;;;;11.48;4.18;;;;;;;16.77;100.00;101608.28;5406097;26;20335;-84
2024/04/13 09:58:26;;;;;;;10.02;3.92;;;;;;;16.62;100.00;101601.91;5404016;26;20350;-83
2024/04/13 10:00:58;;;;;;;9.15;3.67;;;;;;;16.82;100.00;101600.78;5403822;26;20366;-81
2024/04/13 10:03:27;;;;;;;9.70;3.75;;;;;;;17.00;100.00;101606.59;5405040;26;20359;-85
2024/04/13 10:05:58;;;;;;;8.18;3.63;;;;;;;17.10;100.00;101609.16;5398877;26;20336;-83
2024/04/13 10:08:28;;;;;;;9.20;3.80;;;;;;;16.99;100.00;101607.69;5401523;26;20378;-83
2024/04/13 10:11:04;;;;;;;10.27;4.05;;;;;;;16.81;100.00;101598.34;5406103;26;20998;-83
2024/04/13 10:13:36;;;;;;;10.57;3.60;;;;;;;16.86;100.00;101600.16;5403863;26;20329;-84
2024/04/13 10:16:08;;;;;;;14.52;4.20;;;;;;;17.13;100.00;101611.28;5407276;26;20341;-81
2024/04/13 10:18:36;;;;;;;9.93;3.45;;;;;;;17.08;100.00;101588.56;5398726;26;20355;-84
2024/04/13 10:21:08;;;;;;;10.05;3.97;;;;;;;16.94;100.00;101597.56;5397566;26;20363;-80
2024/04/13 10:23:39;;;;;;;9.27;3.60;;;;;;;16.95;100.00;101601.16;5406338;26;20343;-83
2024/04/13 10:26:12;;;;;;;10.02;3.65;;;;;;;16.79;100.00;101595.88;5406701;26;20333;-85
2024/04/13 10:28:41;;;;;;;10.27;3.58;;;;;;;16.75;100.00;101596.75;5404038;26;20344;-83
2024/04/13 10:31:20;;;;;;;8.43;3.00;;;;;;;16.94;100.00;101592.06;5406792;26;20339;-82
2024/04/13 10:33:52;;;;;;;8.95;3.50;;;;;;;16.99;100.00;101586.50;5407263;26;20339;-85
2024/04/13 10:36:29;;;;;;;10.15;3.60;;;;;;;17.05;100.00;101578.16;5403486;26;20368;-81
2024/04/13 10:38:58;;;;;;;11.30;3.35;;;;;;;17.31;100.00;101573.81;5411536;26;20345;-82
2024/04/13 10:41:36;;;;;;;8.77;3.50;;;;;;;17.41;100.00;101561.81;5402758;26;21013;-80
2024/04/13 10:44:09;;;;;;;9.13;3.42;;;;;;;17.58;100.00;101576.91;5404663;26;20828;-83
2024/04/13 10:46:38;;;;;;;8.60;3.05;;;;;;;17.55;100.00;101575.56;5432965;26;20372;-82
2024/04/13 10:49:10;;;;;;;8.00;2.90;;;;;;;17.76;100.00;101569.66;5403244;26;20337;-80
2024/04/13 10:51:40;;;;;;;6.95;2.63;;;;;;;17.83;100.00;101581.91;5401372;26;20976;-81
2024/04/13 10:54:15;;;;;;;7.78;2.80;;;;;;;17.98;100.00;101579.97;5430529;26;20325;-80
2024/04/13 10:56:46;;;;;;;9.90;3.00;;;;;;;17.95;100.00;101583.34;5401627;26;20375;-82
2024/04/13 10:59:16;;;;;;;10.82;2.80;;;;;;;17.99;100.00;101556.81;5401647;26;20367;-81
2024/04/13 11:01:43;;;;;;;6.50;2.60;;;;;;;17.96;100.00;101563.75;5402838;26;20376;-82
2024/04/13 11:04:14;;;;;;;5.45;2.13;;;;;;;17.93;100.00;101566.31;5399611;26;20331;-80
2024/04/13 11:06:41;;;;;;;7.38;2.60;;;;;;;18.15;100.00;101560.06;5416243;26;20455;-84
2024/04/13 11:09:14;;;;;;;6.05;2.30;;;;;;;18.13;100.00;101557.63;5412339;26;20888;-81
2024/04/13 11:11:41;;;;;;;7.17;2.30;;;;;;;17.89;100.00;101566.09;5404837;26;20325;-80
2024/04/13 11:14:14;;;;;;;6.82;2.50;;;;;;;17.93;100.00;101571.84;5404083;26;20666;-80
2024/04/13 11:16:42;;;;;;;9.00;2.53;;;;;;;18.02;100.00;101569.97;5397868;26;20373;-83
2024/04/13 11:19:12;;;;;;;10.18;2.53;;;;;;;18.17;100.00;101555.03;5395646;26;20386;-84
2024/04/13 11:21:40;;;;;;;6.25;2.10;;;;;;;18.21;100.00;101547.78;5400644;26;20332;-82
2024/04/13 11:24:11;;;;;;;5.72;1.88;;;;;;;18.29;100.00;101549.00;5395507;26;20367;-81
2024/04/13 11:26:38;;;;;;;6.97;2.22;;;;;;;18.45;100.00;101547.50;5392997;26;20803;-83